Weather History for Olivia, MN

Change the Weather History Date:

Wednesday, March 12, 2014

  Actual Average (KRWF) Record (KRWF)
Temperature  
Mean Temperature 26 °F -  
Max Temperature 30 °F 36 °F 66 °F (1934)
Min Temperature 23 °F 21 °F -14 °F (1956)
Degree Days  
Heating Degree Days 38    
Moisture  
Dew Point 17 °F    
Average Humidity 65    
Maximum Humidity 86    
Minimum Humidity 50    
Precipitation  
Precipitation 0.00 in - - ()
Sea Level Pressure  
Sea Level Pressure 30.09 in    
Wind  
Wind Speed 11 mph (NW)    
Max Wind Speed 23 mph    
Max Gust Speed 26 mph    
Visibility 10 miles    
Events      
Averages and records for this station are not official NWS values.
T = Trace of Precipitation, MM = Missing Value Source: NWS Daily Summary

Daily Weather History Graph

Daily Weather History Graph

Search for Another Location

Airport:

Trip Planner

Search our weather history database for the weather conditions in past years. The results will help you decide how hot, cold, wet, or windy it might be!

Date:

Astronomy

Mar. 12, 2014 Rise Set
Actual Time 7:37 AM CDT 7:22 PM CDT
Civil Twilight 7:08 AM CDT 7:51 PM CDT
Nautical Twilight 6:35 AM CDT 8:25 PM CDT
Astronomical Twilight 6:00 AM CDT 8:59 PM CDT
Moon 3:46 PM CDT (3/12) 5:17 AM CDT (3/12)
Length of Visible Light 12h 42m
Length of Day
11h 44m
Waxing Gibbous, 85% of the Moon is Illuminated
Mar 12
Waxing Gibbous
Mar 16
Full
Mar 23
Last Quarter
Mar 30
New
Apr 7
First Quarter

Hourly Weather History & Observations

Time (CDT) Temp. Windchill Dew Point Humidity Pressure Visibility Wind Dir Wind Speed Gust Speed Precip Events Conditions
12:13 AM 30.2 °F 18.1 °F 23.0 °F 75% 30.09 in 10.0 mi NNW 18.4 mph 25.3 mph N/A   Clear
12:33 AM 30.2 °F 18.5 °F 23.0 °F 75% 30.09 in 10.0 mi NNW 17.3 mph 26.5 mph N/A   Clear
12:53 AM 30.2 °F 18.9 °F 23.0 °F 75% 30.08 in 10.0 mi NNW 16.1 mph 25.3 mph N/A   Clear
1:13 AM 30.2 °F 16.8 °F 21.2 °F 69% 30.08 in 10.0 mi NNW 23.0 mph - N/A   Clear
1:33 AM 28.4 °F 16.6 °F 19.4 °F 69% 30.08 in 10.0 mi NNW 16.1 mph 21.9 mph N/A   Clear
1:53 AM 28.4 °F 16.6 °F 19.4 °F 69% 30.09 in 10.0 mi NNW 16.1 mph 23.0 mph N/A   Clear
2:13 AM 28.4 °F 16.6 °F 19.4 °F 69% 30.09 in 10.0 mi NNW 16.1 mph 19.6 mph N/A   Clear
2:33 AM 28.4 °F 15.8 °F 19.4 °F 69% 30.09 in 10.0 mi NNW 18.4 mph 23.0 mph N/A   Clear
2:53 AM 26.6 °F 13.8 °F 17.6 °F 69% 30.10 in 10.0 mi North 17.3 mph - N/A   Clear
3:13 AM 26.6 °F 15.2 °F 15.8 °F 64% 30.11 in 10.0 mi NNW 13.8 mph - N/A   Clear
3:33 AM 26.6 °F 15.2 °F 14.0 °F 59% 30.11 in 10.0 mi North 13.8 mph - N/A   Clear
3:53 AM 26.6 °F 15.7 °F 14.0 °F 59% 30.10 in 10.0 mi North 12.7 mph - N/A   Clear
4:13 AM 26.6 °F 16.2 °F 14.0 °F 59% 30.09 in 10.0 mi NNW 11.5 mph - N/A   Clear
4:33 AM 24.8 °F 14.0 °F 14.0 °F 64% 30.09 in 10.0 mi NNW 11.5 mph - N/A   Clear
4:53 AM 24.8 °F 13.4 °F 14.0 °F 64% 30.10 in 10.0 mi NNW 12.7 mph - N/A   Scattered Clouds
5:13 AM 24.8 °F 14.6 °F 14.0 °F 64% 30.09 in 10.0 mi North 10.4 mph - N/A   Mostly Cloudy
5:33 AM 24.8 °F 15.3 °F 14.0 °F 64% 30.10 in 10.0 mi North 9.2 mph - N/A   Overcast
5:53 AM 24.8 °F 14.6 °F 12.2 °F 59% 30.11 in 10.0 mi North 10.4 mph - N/A   Overcast
6:13 AM 24.8 °F 14.0 °F 14.0 °F 64% 30.11 in 10.0 mi North 11.5 mph - N/A   Overcast
6:33 AM 23.0 °F 13.1 °F 12.2 °F 63% 30.11 in 10.0 mi NNW 9.2 mph - N/A   Overcast
6:53 AM 23.0 °F 13.1 °F 12.2 °F 63% 30.11 in 10.0 mi North 9.2 mph - N/A   Overcast
7:13 AM 23.0 °F 13.1 °F 12.2 °F 63% 30.11 in 10.0 mi North 9.2 mph - N/A   Overcast
7:33 AM 23.0 °F 13.9 °F 10.4 °F 59% 30.12 in 10.0 mi North 8.1 mph - N/A   Overcast
7:53 AM 23.0 °F 11.1 °F 12.2 °F 63% 30.13 in 10.0 mi NNW 12.7 mph - N/A   Overcast
8:13 AM 23.0 °F 13.9 °F 12.2 °F 63% 30.13 in 10.0 mi North 8.1 mph - N/A   Overcast
8:33 AM 23.0 °F 12.4 °F 12.2 °F 63% 30.14 in 10.0 mi North 10.4 mph - N/A   Overcast
8:53 AM 23.0 °F 13.1 °F 10.4 °F 59% 30.14 in 10.0 mi North 9.2 mph - N/A   Overcast
9:13 AM 23.0 °F 13.9 °F 10.4 °F 59% 30.14 in 10.0 mi North 8.1 mph - N/A   Overcast
9:33 AM 23.0 °F 13.9 °F 8.6 °F 54% 30.14 in 10.0 mi NNW 8.1 mph - N/A   Overcast
9:52 AM 23.0 °F 15.8 °F 8.6 °F 54% 30.13 in 10.0 mi North 5.8 mph - N/A   Overcast
10:13 AM 23.0 °F 14.7 °F 8.6 °F 54% 30.13 in 10.0 mi North 6.9 mph - N/A   Mostly Cloudy
10:33 AM 23.0 °F 14.7 °F 10.4 °F 59% 30.14 in 10.0 mi North 6.9 mph - N/A   Overcast
10:53 AM 24.8 °F 16.9 °F 8.6 °F 50% 30.13 in 10.0 mi North 6.9 mph - N/A   Mostly Cloudy
11:13 AM 24.8 °F 19.1 °F 8.6 °F 50% 30.13 in 10.0 mi North 4.6 mph - N/A   Mostly Cloudy
11:33 AM 24.8 °F 20.5 °F 10.4 °F 54% 30.14 in 10.0 mi NNW 3.5 mph - N/A   Overcast
11:53 AM 26.6 °F 21.2 °F 12.2 °F 55% 30.13 in 10.0 mi NNW 4.6 mph - N/A   Overcast
12:13 PM 26.6 °F 20.0 °F 12.2 °F 55% 30.13 in 10.0 mi NW 5.8 mph - N/A   Overcast
12:33 PM 26.6 °F 21.2 °F 12.2 °F 55% 30.13 in 10.0 mi NNW 4.6 mph - N/A   Overcast
12:53 PM 26.6 °F 21.2 °F 12.2 °F 55% 30.13 in 10.0 mi NW 4.6 mph - N/A   Overcast
1:13 PM 28.4 °F 24.6 °F 14.0 °F 55% 30.13 in 10.0 mi NNW 3.5 mph - N/A   Overcast
1:33 PM 28.4 °F 24.6 °F 14.0 °F 55% 30.13 in 10.0 mi NW 3.5 mph - N/A   Overcast
1:53 PM 28.4 °F 23.3 °F 14.0 °F 55% 30.13 in 10.0 mi WNW 4.6 mph - N/A   Overcast
2:13 PM 28.4 °F 22.2 °F 15.8 °F 59% 30.11 in 10.0 mi West 5.8 mph - N/A   Overcast
2:33 PM 28.4 °F 22.2 °F 15.8 °F 59% 30.11 in 10.0 mi NW 5.8 mph - N/A   Overcast
2:53 PM 28.4 °F - 15.8 °F 59% 30.11 in 10.0 mi Calm Calm - N/A   Overcast
3:13 PM 28.4 °F 23.3 °F 14.0 °F 55% 30.11 in 10.0 mi NW 4.6 mph - N/A   Overcast
3:33 PM 30.2 °F 26.7 °F 17.6 °F 60% 30.09 in 10.0 mi NW 3.5 mph - N/A   Overcast
3:53 PM 30.2 °F 25.4 °F 17.6 °F 60% 30.08 in 10.0 mi WSW 4.6 mph - N/A   Overcast
4:13 PM 30.2 °F - 17.6 °F 60% 30.08 in 10.0 mi Calm Calm - N/A   Mostly Cloudy
4:33 PM 30.2 °F - 17.6 °F 60% 30.07 in 10.0 mi Calm Calm - N/A   Mostly Cloudy
4:52 PM 30.2 °F - 19.4 °F 64% 30.06 in 10.0 mi Calm Calm - N/A   Overcast
5:13 PM 30.2 °F 26.7 °F 19.4 °F 64% 30.06 in 10.0 mi SSW 3.5 mph - N/A   Overcast
5:33 PM 30.2 °F 25.4 °F 19.4 °F 64% 30.06 in 10.0 mi South 4.6 mph - N/A   Overcast
5:53 PM 30.2 °F 26.7 °F 21.2 °F 69% 30.06 in 10.0 mi SSW 3.5 mph - N/A   Overcast
6:13 PM 30.2 °F 25.4 °F 21.2 °F 69% 30.06 in 10.0 mi SSW 4.6 mph - N/A   Overcast
6:33 PM 30.2 °F 24.3 °F 21.2 °F 69% 30.06 in 10.0 mi SSW 5.8 mph - N/A   Overcast
6:53 PM 30.2 °F 24.3 °F 21.2 °F 69% 30.06 in 10.0 mi SW 5.8 mph - N/A   Overcast
7:13 PM 30.2 °F 24.3 °F 23.0 °F 75% 30.06 in 10.0 mi SSW 5.8 mph - N/A   Overcast
7:33 PM 30.2 °F 24.3 °F 23.0 °F 75% 30.06 in 10.0 mi SSW 5.8 mph - N/A   Overcast
7:53 PM 30.2 °F 24.3 °F 23.0 °F 75% 30.05 in 10.0 mi SSW 5.8 mph - N/A   Overcast
8:13 PM 30.2 °F 24.3 °F 23.0 °F 75% 30.05 in 10.0 mi South 5.8 mph - N/A   Overcast
8:33 PM 30.2 °F 23.4 °F 23.0 °F 75% 30.04 in 10.0 mi SSE 6.9 mph - N/A   Overcast
8:53 PM 30.2 °F 22.6 °F 24.8 °F 80% 30.03 in 10.0 mi SSE 8.1 mph - N/A   Overcast
9:13 PM 30.2 °F 21.3 °F 24.8 °F 80% 30.02 in 10.0 mi SE 10.4 mph - N/A   Overcast
9:33 PM 30.2 °F 22.6 °F 24.8 °F 80% 30.02 in 10.0 mi SSE 8.1 mph - N/A   Overcast
9:53 PM 30.2 °F 21.9 °F 24.8 °F 80% 30.02 in 10.0 mi SSE 9.2 mph - N/A   Overcast
10:13 PM 30.2 °F 21.9 °F 24.8 °F 80% 30.01 in 10.0 mi SSE 9.2 mph - N/A   Overcast
10:33 PM 30.2 °F 21.9 °F 24.8 °F 80% 30.01 in 10.0 mi SSE 9.2 mph - N/A   Overcast
10:53 PM 30.2 °F 21.3 °F 24.8 °F 80% 30.00 in 10.0 mi SSE 10.4 mph - N/A   Overcast
11:12 PM 30.2 °F 20.8 °F 24.8 °F 80% 30.00 in 10.0 mi SSE 11.5 mph - N/A   Overcast
11:33 PM 30.2 °F 21.9 °F 24.8 °F 80% 29.99 in 10.0 mi SSE 9.2 mph - N/A   Overcast
11:53 PM 30.2 °F 20.2 °F 26.6 °F 86% 29.97 in 10.0 mi SSE 12.7 mph - N/A   Overcast